sensor_id;sensor_type;location;lat;lon;timestamp;pressure;altitude;pressure_sealevel;temperature;humidity
68107;BME280;54892;47.488;19.026;2023-04-04T00:00:50;100215.19;;;3.23;42.78
68107;BME280;54892;47.488;19.026;2023-04-04T00:03:53;100223.63;;;3.25;42.69
68107;BME280;54892;47.488;19.026;2023-04-04T00:06:57;100223.63;;;3.31;42.46
68107;BME280;54892;47.488;19.026;2023-04-04T00:10:01;100221.41;;;3.35;42.64
68107;BME280;54892;47.488;19.026;2023-04-04T00:13:04;100216.19;;;3.35;42.37
68107;BME280;54892;47.488;19.026;2023-04-04T00:16:08;100222.19;;;3.35;42.99
68107;BME280;54892;47.488;19.026;2023-04-04T00:19:12;100228.84;;;3.38;42.68
68107;BME280;54892;47.488;19.026;2023-04-04T00:22:19;100226.03;;;3.40;43.28
68107;BME280;54892;47.488;19.026;2023-04-04T00:25:22;100233.47;;;3.23;42.80
68107;BME280;54892;47.488;19.026;2023-04-04T00:28:26;100236.06;;;3.23;43.13
68107;BME280;54892;47.488;19.026;2023-04-04T00:31:29;100238.28;;;3.26;43.16
68107;BME280;54892;47.488;19.026;2023-04-04T00:34:32;100239.69;;;3.15;43.42
68107;BME280;54892;47.488;19.026;2023-04-04T00:37:38;100240.06;;;3.12;43.74
68107;BME280;54892;47.488;19.026;2023-04-04T00:40:41;100240.06;;;3.12;43.77
68107;BME280;54892;47.488;19.026;2023-04-04T00:43:45;100237.47;;;3.18;43.36
68107;BME280;54892;47.488;19.026;2023-04-04T00:46:48;100237.06;;;3.08;43.10
68107;BME280;54892;47.488;19.026;2023-04-04T00:49:53;100240.47;;;3.22;42.16
68107;BME280;54892;47.488;19.026;2023-04-04T00:52:57;100235.62;;;3.05;42.79
68107;BME280;54892;47.488;19.026;2023-04-04T00:56:00;100228.41;;;3.14;43.42
68107;BME280;54892;47.488;19.026;2023-04-04T00:59:03;100219.59;;;3.15;43.41
68107;BME280;54892;47.488;19.026;2023-04-04T01:02:06;100219.81;;;3.07;43.14
68107;BME280;54892;47.488;19.026;2023-04-04T01:05:09;100218.38;;;3.04;42.93
68107;BME280;54892;47.488;19.026;2023-04-04T01:08:14;100207.38;;;2.96;43.41
68107;BME280;54892;47.488;19.026;2023-04-04T01:11:18;100203.31;;;2.80;44.07
68107;BME280;54892;47.488;19.026;2023-04-04T01:14:22;100196.69;;;2.70;44.29
68107;BME280;54892;47.488;19.026;2023-04-04T01:17:25;100195.12;;;2.83;44.16
68107;BME280;54892;47.488;19.026;2023-04-04T01:20:29;100184.47;;;2.78;44.13
68107;BME280;54892;47.488;19.026;2023-04-04T01:23:39;100182.47;;;2.73;43.82
68107;BME280;54892;47.488;19.026;2023-04-04T01:26:46;100171.44;;;2.84;43.36
68107;BME280;54892;47.488;19.026;2023-04-04T01:29:49;100175.66;;;2.79;43.71
68107;BME280;54892;47.488;19.026;2023-04-04T01:32:53;100165.03;;;2.80;43.75
68107;BME280;54892;47.488;19.026;2023-04-04T01:36:01;100160.81;;;2.72;43.79
68107;BME280;54892;47.488;19.026;2023-04-04T01:39:07;100154.41;;;2.68;43.72
68107;BME280;54892;47.488;19.026;2023-04-04T01:42:12;100142.16;;;2.62;44.56
68107;BME280;54892;47.488;19.026;2023-04-04T01:45:16;100144.72;;;2.49;44.20
68107;BME280;54892;47.488;19.026;2023-04-04T01:48:19;100138.13;;;2.53;44.11
68107;BME280;54892;47.488;19.026;2023-04-04T01:51:22;100136.91;;;2.42;44.62
68107;BME280;54892;47.488;19.026;2023-04-04T01:54:26;100134.53;;;2.54;44.11
68107;BME280;54892;47.488;19.026;2023-04-04T01:57:31;100124.91;;;2.54;44.65
68107;BME280;54892;47.488;19.026;2023-04-04T02:00:34;100122.28;;;2.48;44.90
68107;BME280;54892;47.488;19.026;2023-04-04T02:03:37;100113.25;;;2.43;44.48
68107;BME280;54892;47.488;19.026;2023-04-04T02:06:40;100099.66;;;2.48;44.50
68107;BME280;54892;47.488;19.026;2023-04-04T02:09:43;100108.84;;;2.37;44.94
68107;BME280;54892;47.488;19.026;2023-04-04T02:12:47;100104.06;;;2.48;44.71
68107;BME280;54892;47.488;19.026;2023-04-04T02:15:50;100101.22;;;2.49;44.60
68107;BME280;54892;47.488;19.026;2023-04-04T02:18:54;100096.84;;;2.43;44.81
68107;BME280;54892;47.488;19.026;2023-04-04T02:21:57;100094.81;;;2.32;45.17
68107;BME280;54892;47.488;19.026;2023-04-04T02:25:00;100090.19;;;2.27;45.47
68107;BME280;54892;47.488;19.026;2023-04-04T02:28:04;100089.59;;;2.25;45.52
68107;BME280;54892;47.488;19.026;2023-04-04T02:31:07;100081.37;;;2.28;45.61
68107;BME280;54892;47.488;19.026;2023-04-04T02:34:11;100072.16;;;2.32;45.65
68107;BME280;54892;47.488;19.026;2023-04-04T02:37:14;100078.19;;;2.33;45.64
68107;BME280;54892;47.488;19.026;2023-04-04T02:40:18;100074.00;;;2.38;45.34
68107;BME280;54892;47.488;19.026;2023-04-04T02:43:22;100075.97;;;2.30;45.64
68107;BME280;54892;47.488;19.026;2023-04-04T02:46:25;100071.56;;;2.23;45.92
68107;BME280;54892;47.488;19.026;2023-04-04T02:49:28;100071.94;;;2.20;45.51
68107;BME280;54892;47.488;19.026;2023-04-04T02:52:32;100077.56;;;2.17;45.90
68107;BME280;54892;47.488;19.026;2023-04-04T02:55:35;100078.38;;;2.24;45.82
68107;BME280;54892;47.488;19.026;2023-04-04T02:58:39;100078.34;;;2.11;46.25
68107;BME280;54892;47.488;19.026;2023-04-04T03:01:43;100076.34;;;2.20;46.18
68107;BME280;54892;47.488;19.026;2023-04-04T03:04:46;100076.59;;;2.25;46.10
68107;BME280;54892;47.488;19.026;2023-04-04T03:07:51;100093.00;;;2.25;45.94
68107;BME280;54892;47.488;19.026;2023-04-04T03:10:55;100096.22;;;2.41;45.73
68107;BME280;54892;47.488;19.026;2023-04-04T03:13:59;100103.19;;;2.27;46.01
68107;BME280;54892;47.488;19.026;2023-04-04T03:17:02;100091.37;;;2.18;46.47
68107;BME280;54892;47.488;19.026;2023-04-04T03:20:05;100093.97;;;2.11;46.40
68107;BME280;54892;47.488;19.026;2023-04-04T03:23:08;100105.63;;;2.28;46.04
68107;BME280;54892;47.488;19.026;2023-04-04T03:26:11;100096.59;;;2.18;46.16
68107;BME280;54892;47.488;19.026;2023-04-04T03:29:15;100102.16;;;2.08;46.37
68107;BME280;54892;47.488;19.026;2023-04-04T03:32:19;100097.34;;;2.11;46.76
68107;BME280;54892;47.488;19.026;2023-04-04T03:35:22;100100.19;;;2.23;46.62
68107;BME280;54892;47.488;19.026;2023-04-04T03:38:24;100100.78;;;2.12;46.86
68107;BME280;54892;47.488;19.026;2023-04-04T03:41:27;100109.59;;;2.11;47.38
68107;BME280;54892;47.488;19.026;2023-04-04T03:44:32;100108.31;;;1.93;47.58
68107;BME280;54892;47.488;19.026;2023-04-04T03:47:35;100115.75;;;1.96;47.76
68107;BME280;54892;47.488;19.026;2023-04-04T03:50:38;100112.97;;;2.05;47.82
68107;BME280;54892;47.488;19.026;2023-04-04T03:53:41;100111.97;;;2.06;47.81
68107;BME280;54892;47.488;19.026;2023-04-04T03:56:58;100115.19;;;2.15;47.75
68107;BME280;54892;47.488;19.026;2023-04-04T04:00:03;100109.19;;;2.07;47.76
68107;BME280;54892;47.488;19.026;2023-04-04T04:03:06;100107.19;;;2.09;47.92
68107;BME280;54892;47.488;19.026;2023-04-04T04:06:09;100109.19;;;2.07;47.88
68107;BME280;54892;47.488;19.026;2023-04-04T04:09:12;100103.97;;;2.01;47.92
68107;BME280;54892;47.488;19.026;2023-04-04T04:12:15;100105.72;;;1.93;48.11
68107;BME280;54892;47.488;19.026;2023-04-04T04:15:19;100101.09;;;1.89;48.26
68107;BME280;54892;47.488;19.026;2023-04-04T04:18:22;100100.69;;;1.85;48.18
68107;BME280;54892;47.488;19.026;2023-04-04T04:21:24;100093.44;;;1.74;48.44
68107;BME280;54892;47.488;19.026;2023-04-04T04:24:27;100103.84;;;1.74;48.59
68107;BME280;54892;47.488;19.026;2023-04-04T04:27:30;100095.28;;;1.80;48.36
68107;BME280;54892;47.488;19.026;2023-04-04T04:30:35;100093.44;;;1.74;48.64
68107;BME280;54892;47.488;19.026;2023-04-04T04:33:38;100091.03;;;1.72;48.43
68107;BME280;54892;47.488;19.026;2023-04-04T04:36:41;100094.03;;;1.69;48.69
68107;BME280;54892;47.488;19.026;2023-04-04T04:39:44;100091.66;;;1.81;48.63
68107;BME280;54892;47.488;19.026;2023-04-04T04:42:47;100096.62;;;1.69;48.75
68107;BME280;54892;47.488;19.026;2023-04-04T04:45:52;100096.03;;;1.74;49.06
68107;BME280;54892;47.488;19.026;2023-04-04T04:48:55;100092.25;;;1.70;48.81
68107;BME280;54892;47.488;19.026;2023-04-04T04:51:59;100092.25;;;1.70;48.84
68107;BME280;54892;47.488;19.026;2023-04-04T04:55:03;100091.47;;;1.82;48.49
68107;BME280;54892;47.488;19.026;2023-04-04T04:58:06;100093.72;;;1.92;48.46
68107;BME280;54892;47.488;19.026;2023-04-04T05:01:10;100088.91;;;2.03;48.03
68107;BME280;54892;47.488;19.026;2023-04-04T05:04:13;100089.50;;;1.91;47.68
68107;BME280;54892;47.488;19.026;2023-04-04T05:07:18;100092.47;;;1.88;48.04
68107;BME280;54892;47.488;19.026;2023-04-04T05:10:20;100092.31;;;1.96;47.58
68107;BME280;54892;47.488;19.026;2023-04-04T05:13:23;100089.16;;;2.08;47.90
68107;BME280;54892;47.488;19.026;2023-04-04T05:16:28;100090.38;;;2.12;47.53
68107;BME280;54892;47.488;19.026;2023-04-04T05:19:31;100091.63;;;2.77;50.14
68107;BME280;54892;47.488;19.026;2023-04-04T05:22:34;100094.19;;;7.58;73.60
68107;BME280;54892;47.488;19.026;2023-04-04T05:25:37;100089.50;;;7.08;41.38
68107;BME280;54892;47.488;19.026;2023-04-04T05:28:40;100095.88;;;4.48;42.47
68107;BME280;54892;47.488;19.026;2023-04-04T05:31:44;100095.47;;;3.73;44.40
68107;BME280;54892;47.488;19.026;2023-04-04T05:34:47;100092.63;;;3.09;46.00
68107;BME280;54892;47.488;19.026;2023-04-04T05:37:50;100097.06;;;2.88;46.03
68107;BME280;54892;47.488;19.026;2023-04-04T05:40:53;100093.84;;;2.93;45.96
68107;BME280;54892;47.488;19.026;2023-04-04T05:43:56;100101.06;;;2.84;45.64
68107;BME280;54892;47.488;19.026;2023-04-04T05:47:00;100101.47;;;2.88;45.43
68107;BME280;54892;47.488;19.026;2023-04-04T05:50:03;100103.97;;;3.48;43.77
68107;BME280;54892;47.488;19.026;2023-04-04T05:53:06;100108.59;;;3.40;44.18
68107;BME280;54892;47.488;19.026;2023-04-04T05:56:09;100103.47;;;4.17;42.27
68107;BME280;54892;47.488;19.026;2023-04-04T05:59:12;100103.53;;;4.42;41.79
68107;BME280;54892;47.488;19.026;2023-04-04T06:02:17;100102.38;;;4.89;40.21
68107;BME280;54892;47.488;19.026;2023-04-04T06:05:20;100108.97;;;5.17;39.32
68107;BME280;54892;47.488;19.026;2023-04-04T06:08:22;100114.66;;;5.88;37.25
68107;BME280;54892;47.488;19.026;2023-04-04T06:11:26;100120.50;;;5.72;36.56
68107;BME280;54892;47.488;19.026;2023-04-04T06:14:30;100114.50;;;5.64;36.61
68107;BME280;54892;47.488;19.026;2023-04-04T06:17:34;100117.28;;;5.51;37.32
68107;BME280;54892;47.488;19.026;2023-04-04T06:20:37;100108.16;;;6.09;37.24
68107;BME280;54892;47.488;19.026;2023-04-04T06:23:40;100108.44;;;6.01;36.69
68107;BME280;54892;47.488;19.026;2023-04-04T06:26:43;100118.34;;;5.99;36.71
68107;BME280;54892;47.488;19.026;2023-04-04T06:29:47;100136.50;;;6.01;36.35
68107;BME280;54892;47.488;19.026;2023-04-04T06:32:51;100124.97;;;6.02;36.92
68107;BME280;54892;47.488;19.026;2023-04-04T06:35:54;100100.16;;;6.35;36.42
68107;BME280;54892;47.488;19.026;2023-04-04T06:38:57;100074.37;;;6.32;37.18
68107;BME280;54892;47.488;19.026;2023-04-04T06:41:59;100069.88;;;6.08;36.95
68107;BME280;54892;47.488;19.026;2023-04-04T06:45:03;100076.47;;;5.81;36.96
68107;BME280;54892;47.488;19.026;2023-04-04T06:48:07;100074.50;;;6.37;36.87
68107;BME280;54892;47.488;19.026;2023-04-04T06:51:10;100065.69;;;6.31;36.62
68107;BME280;54892;47.488;19.026;2023-04-04T06:54:13;100066.59;;;5.94;37.27
68107;BME280;54892;47.488;19.026;2023-04-04T06:57:16;100067.00;;;6.10;36.93
68107;BME280;54892;47.488;19.026;2023-04-04T07:00:20;100070.22;;;5.93;37.29
68107;BME280;54892;47.488;19.026;2023-04-04T07:03:24;100074.78;;;5.68;38.14
68107;BME280;54892;47.488;19.026;2023-04-04T07:06:28;100071.72;;;6.20;37.90
68107;BME280;54892;47.488;19.026;2023-04-04T07:09:31;100067.87;;;6.22;37.04
68107;BME280;54892;47.488;19.026;2023-04-04T07:12:34;100080.94;;;6.11;37.11
68107;BME280;54892;47.488;19.026;2023-04-04T07:15:37;100090.66;;;6.22;36.65
68107;BME280;54892;47.488;19.026;2023-04-04T07:18:42;100101.16;;;6.03;37.13
68107;BME280;54892;47.488;19.026;2023-04-04T07:21:45;100102.97;;;5.35;37.71
68107;BME280;54892;47.488;19.026;2023-04-04T07:24:48;100097.78;;;5.66;37.89
68107;BME280;54892;47.488;19.026;2023-04-04T07:27:52;100102.06;;;5.23;37.51
68107;BME280;54892;47.488;19.026;2023-04-04T07:31:03;100093.28;;;4.73;39.19
68107;BME280;54892;47.488;19.026;2023-04-04T07:34:07;100101.72;;;4.68;39.58
68107;BME280;54892;47.488;19.026;2023-04-04T07:37:10;100107.19;;;4.67;40.03
68107;BME280;54892;47.488;19.026;2023-04-04T07:40:13;100100.53;;;5.33;38.32
68107;BME280;54892;47.488;19.026;2023-04-04T07:43:16;100105.56;;;5.72;37.01
68107;BME280;54892;47.488;19.026;2023-04-04T07:46:19;100109.38;;;7.97;33.77
68107;BME280;54892;47.488;19.026;2023-04-04T07:49:23;100098.19;;;9.38;31.70
68107;BME280;54892;47.488;19.026;2023-04-04T07:52:26;100100.44;;;9.29;30.58
68107;BME280;54892;47.488;19.026;2023-04-04T07:55:29;100097.03;;;8.27;32.78
68107;BME280;54892;47.488;19.026;2023-04-04T07:58:32;100093.69;;;7.44;33.69
68107;BME280;54892;47.488;19.026;2023-04-04T08:01:36;100094.84;;;7.13;34.21
68107;BME280;54892;47.488;19.026;2023-04-04T08:04:40;100094.63;;;7.03;35.59
68107;BME280;54892;47.488;19.026;2023-04-04T08:07:43;100106.50;;;6.81;35.52
68107;BME280;54892;47.488;19.026;2023-04-04T08:10:46;100104.00;;;6.32;35.68
68107;BME280;54892;47.488;19.026;2023-04-04T08:13:50;100099.03;;;5.93;35.42
68107;BME280;54892;47.488;19.026;2023-04-04T08:16:53;100099.53;;;5.53;36.72
68107;BME280;54892;47.488;19.026;2023-04-04T08:19:57;100102.31;;;5.40;37.63
68107;BME280;54892;47.488;19.026;2023-04-04T08:23:00;100111.47;;;5.49;37.92
68107;BME280;54892;47.488;19.026;2023-04-04T08:26:03;100115.78;;;5.18;37.38
68107;BME280;54892;47.488;19.026;2023-04-04T08:29:06;100105.22;;;5.69;37.20
68107;BME280;54892;47.488;19.026;2023-04-04T08:32:10;100100.53;;;5.89;37.33
68107;BME280;54892;47.488;19.026;2023-04-04T08:35:15;100118.53;;;6.16;36.07
68107;BME280;54892;47.488;19.026;2023-04-04T08:38:18;100106.66;;;6.02;35.64
68107;BME280;54892;47.488;19.026;2023-04-04T08:41:20;100116.84;;;5.73;36.36
68107;BME280;54892;47.488;19.026;2023-04-04T08:44:23;100104.59;;;5.85;35.79
68107;BME280;54892;47.488;19.026;2023-04-04T08:47:27;100104.81;;;6.02;36.39
68107;BME280;54892;47.488;19.026;2023-04-04T08:50:33;100090.12;;;5.83;35.89
68107;BME280;54892;47.488;19.026;2023-04-04T08:53:39;100089.38;;;5.94;35.87
68107;BME280;54892;47.488;19.026;2023-04-04T08:56:42;100093.22;;;6.10;35.94
68107;BME280;54892;47.488;19.026;2023-04-04T08:59:45;100086.94;;;5.81;36.19
68107;BME280;54892;47.488;19.026;2023-04-04T09:02:49;100079.06;;;5.99;36.42
68107;BME280;54892;47.488;19.026;2023-04-04T09:05:56;100072.31;;;5.73;36.31
68107;BME280;54892;47.488;19.026;2023-04-04T09:08:59;100073.53;;;5.89;36.61
68107;BME280;54892;47.488;19.026;2023-04-04T09:12:02;100076.12;;;5.58;36.52
68107;BME280;54892;47.488;19.026;2023-04-04T09:15:07;100088.16;;;5.78;36.60
68107;BME280;54892;47.488;19.026;2023-04-04T09:18:10;100068.81;;;5.79;36.83
68107;BME280;54892;47.488;19.026;2023-04-04T09:21:14;100074.63;;;6.30;36.48
68107;BME280;54892;47.488;19.026;2023-04-04T09:24:17;100080.53;;;6.37;35.37
68107;BME280;54892;47.488;19.026;2023-04-04T09:27:20;100079.34;;;6.09;36.00
68107;BME280;54892;47.488;19.026;2023-04-04T09:30:23;100084.13;;;6.13;35.66
68107;BME280;54892;47.488;19.026;2023-04-04T09:33:26;100090.78;;;5.78;36.03
68107;BME280;54892;47.488;19.026;2023-04-04T09:36:31;100088.97;;;5.78;35.96
68107;BME280;54892;47.488;19.026;2023-04-04T09:39:37;100079.34;;;5.91;36.05
68107;BME280;54892;47.488;19.026;2023-04-04T09:42:40;100067.94;;;6.04;35.88
68107;BME280;54892;47.488;19.026;2023-04-04T09:45:44;100086.25;;;6.04;36.10
68107;BME280;54892;47.488;19.026;2023-04-04T09:48:47;100081.37;;;6.07;35.82
68107;BME280;54892;47.488;19.026;2023-04-04T09:51:53;100068.13;;;6.02;36.33
68107;BME280;54892;47.488;19.026;2023-04-04T09:54:56;100063.03;;;6.07;36.05
68107;BME280;54892;47.488;19.026;2023-04-04T09:58:00;100056.72;;;6.39;35.83
68107;BME280;54892;47.488;19.026;2023-04-04T10:01:12;100063.91;;;6.55;35.01
68107;BME280;54892;47.488;19.026;2023-04-04T10:04:15;100059.12;;;6.40;35.58
68107;BME280;54892;47.488;19.026;2023-04-04T10:07:21;100079.66;;;6.55;35.14
68107;BME280;54892;47.488;19.026;2023-04-04T10:10:25;100079.53;;;6.38;35.40
68107;BME280;54892;47.488;19.026;2023-04-04T10:13:29;100067.13;;;6.58;34.89
68107;BME280;54892;47.488;19.026;2023-04-04T10:16:32;100076.72;;;6.64;34.50
68107;BME280;54892;47.488;19.026;2023-04-04T10:19:38;100073.75;;;6.72;34.92
68107;BME280;54892;47.488;19.026;2023-04-04T10:22:44;100058.81;;;6.84;34.37
68107;BME280;54892;47.488;19.026;2023-04-04T10:25:47;100053.19;;;7.16;34.44
68107;BME280;54892;47.488;19.026;2023-04-04T10:28:51;100055.81;;;7.16;34.17
68107;BME280;54892;47.488;19.026;2023-04-04T10:31:56;100041.78;;;7.11;33.89
68107;BME280;54892;47.488;19.026;2023-04-04T10:35:01;100041.19;;;7.32;33.88
68107;BME280;54892;47.488;19.026;2023-04-04T10:38:06;100032.25;;;7.45;33.99
68107;BME280;54892;47.488;19.026;2023-04-04T10:41:10;100035.97;;;7.61;33.35
68107;BME280;54892;47.488;19.026;2023-04-04T10:44:17;100037.25;;;7.47;33.29
68107;BME280;54892;47.488;19.026;2023-04-04T10:47:21;100038.34;;;7.63;32.36
68107;BME280;54892;47.488;19.026;2023-04-04T10:50:26;100033.94;;;7.52;33.06
68107;BME280;54892;47.488;19.026;2023-04-04T10:53:31;100040.03;;;7.40;32.65
68107;BME280;54892;47.488;19.026;2023-04-04T10:56:35;100037.34;;;7.23;33.46
68107;BME280;54892;47.488;19.026;2023-04-04T11:02:56;100034.22;;;7.26;33.52
68107;BME280;54892;47.488;19.026;2023-04-04T11:06:00;100032.84;;;7.36;33.48
68107;BME280;54892;47.488;19.026;2023-04-04T11:09:06;100031.94;;;7.30;32.94
68107;BME280;54892;47.488;19.026;2023-04-04T11:12:12;100024.53;;;7.27;33.11
68107;BME280;54892;47.488;19.026;2023-04-04T11:15:21;100022.81;;;7.61;32.69
68107;BME280;54892;47.488;19.026;2023-04-04T11:21:42;100023.63;;;7.62;33.38
68107;BME280;54892;47.488;19.026;2023-04-04T11:24:48;100017.59;;;7.50;33.23
68107;BME280;54892;47.488;19.026;2023-04-04T11:27:52;100011.84;;;7.65;33.80
68107;BME280;54892;47.488;19.026;2023-04-04T11:34:29;100020.66;;;7.58;33.51
68107;BME280;54892;47.488;19.026;2023-04-04T11:37:32;100008.62;;;7.74;33.48
68107;BME280;54892;47.488;19.026;2023-04-04T11:40:52;100007.91;;;7.79;32.25
68107;BME280;54892;47.488;19.026;2023-04-04T11:43:57;99995.03;;;7.95;33.15
68107;BME280;54892;47.488;19.026;2023-04-04T11:47:08;99995.44;;;8.03;32.70
68107;BME280;54892;47.488;19.026;2023-04-04T11:50:12;99989.25;;;8.10;33.03
68107;BME280;54892;47.488;19.026;2023-04-04T11:53:16;99980.59;;;7.97;33.13
68107;BME280;54892;47.488;19.026;2023-04-04T11:56:20;99985.03;;;7.80;33.44
68107;BME280;54892;47.488;19.026;2023-04-04T11:59:24;99981.72;;;8.01;33.08
68107;BME280;54892;47.488;19.026;2023-04-04T12:02:27;99985.87;;;8.31;32.67
68107;BME280;54892;47.488;19.026;2023-04-04T12:05:32;99986.19;;;8.35;32.65
68107;BME280;54892;47.488;19.026;2023-04-04T12:08:35;99980.38;;;8.16;32.44
68107;BME280;54892;47.488;19.026;2023-04-04T12:11:40;99977.13;;;8.26;32.63
68107;BME280;54892;47.488;19.026;2023-04-04T12:14:43;99970.13;;;8.48;32.67
68107;BME280;54892;47.488;19.026;2023-04-04T12:17:46;99964.28;;;8.46;31.68
68107;BME280;54892;47.488;19.026;2023-04-04T12:20:51;99959.19;;;8.79;31.49
68107;BME280;54892;47.488;19.026;2023-04-04T12:23:54;99957.19;;;8.64;32.38
68107;BME280;54892;47.488;19.026;2023-04-04T12:26:59;99951.38;;;8.62;32.43
68107;BME280;54892;47.488;19.026;2023-04-04T12:30:04;99950.97;;;8.53;32.33
68107;BME280;54892;47.488;19.026;2023-04-04T12:33:11;99953.53;;;8.48;32.87
68107;BME280;54892;47.488;19.026;2023-04-04T12:36:14;99949.88;;;8.49;31.96
68107;BME280;54892;47.488;19.026;2023-04-04T12:39:18;99949.69;;;8.38;32.44
68107;BME280;54892;47.488;19.026;2023-04-04T12:42:23;99938.38;;;8.55;31.62
68107;BME280;54892;47.488;19.026;2023-04-04T12:45:26;99939.53;;;8.64;32.21
68107;BME280;54892;47.488;19.026;2023-04-04T12:48:30;99949.50;;;8.62;32.63
68107;BME280;54892;47.488;19.026;2023-04-04T12:51:34;99941.03;;;8.77;31.77
68107;BME280;54892;47.488;19.026;2023-04-04T12:54:38;99939.56;;;8.87;31.56
68107;BME280;54892;47.488;19.026;2023-04-04T12:57:43;99933.25;;;8.88;31.46
68107;BME280;54892;47.488;19.026;2023-04-04T13:00:46;99934.97;;;8.77;31.47
68107;BME280;54892;47.488;19.026;2023-04-04T13:03:50;99937.38;;;8.78;31.62
68107;BME280;54892;47.488;19.026;2023-04-04T13:06:53;99935.31;;;8.63;31.49
68107;BME280;54892;47.488;19.026;2023-04-04T13:09:56;99929.22;;;8.80;31.28
68107;BME280;54892;47.488;19.026;2023-04-04T13:13:01;99934.38;;;8.52;31.33
68107;BME280;54892;47.488;19.026;2023-04-04T13:16:04;99928.25;;;8.64;31.91
68107;BME280;54892;47.488;19.026;2023-04-04T13:19:08;99930.38;;;8.67;30.92
68107;BME280;54892;47.488;19.026;2023-04-04T13:22:11;99922.25;;;8.68;30.97
68107;BME280;54892;47.488;19.026;2023-04-04T13:25:14;99922.97;;;8.47;31.37
68107;BME280;54892;47.488;19.026;2023-04-04T13:28:18;99926.81;;;8.56;31.41
68107;BME280;54892;47.488;19.026;2023-04-04T13:31:22;99922.59;;;8.55;31.02
68107;BME280;54892;47.488;19.026;2023-04-04T13:34:25;99916.97;;;8.68;31.35
68107;BME280;54892;47.488;19.026;2023-04-04T13:37:28;99911.25;;;8.72;31.94
68107;BME280;54892;47.488;19.026;2023-04-04T13:40:31;99910.06;;;8.84;30.61
68107;BME280;54892;47.488;19.026;2023-04-04T13:43:36;99925.78;;;9.02;30.99
68107;BME280;54892;47.488;19.026;2023-04-04T13:46:39;99915.25;;;9.02;30.75
68107;BME280;54892;47.488;19.026;2023-04-04T13:49:42;99915.69;;;8.93;30.71
68107;BME280;54892;47.488;19.026;2023-04-04T13:52:46;99911.34;;;8.82;30.19
68107;BME280;54892;47.488;19.026;2023-04-04T13:55:49;99912.19;;;8.88;30.65
68107;BME280;54892;47.488;19.026;2023-04-04T13:59:03;99915.63;;;8.88;29.82
68107;BME280;54892;47.488;19.026;2023-04-04T14:02:06;99908.03;;;8.70;29.63
68107;BME280;54892;47.488;19.026;2023-04-04T14:05:09;99902.91;;;8.80;30.03
68107;BME280;54892;47.488;19.026;2023-04-04T14:08:13;99901.13;;;8.86;30.49
68107;BME280;54892;47.488;19.026;2023-04-04T14:11:16;99900.06;;;8.87;30.14
68107;BME280;54892;47.488;19.026;2023-04-04T14:14:20;99901.59;;;8.82;30.34
68107;BME280;54892;47.488;19.026;2023-04-04T14:17:23;99906.81;;;8.99;29.57
68107;BME280;54892;47.488;19.026;2023-04-04T14:20:26;99908.22;;;8.85;29.22
68107;BME280;54892;47.488;19.026;2023-04-04T14:23:29;99906.16;;;8.87;30.04
68107;BME280;54892;47.488;19.026;2023-04-04T14:26:32;99911.16;;;8.89;29.22
68107;BME280;54892;47.488;19.026;2023-04-04T14:29:36;99909.44;;;8.99;29.45
68107;BME280;54892;47.488;19.026;2023-04-04T14:32:39;99913.50;;;8.85;29.42
68107;BME280;54892;47.488;19.026;2023-04-04T14:35:42;99911.28;;;8.77;30.27
68107;BME280;54892;47.488;19.026;2023-04-04T14:38:45;99913.16;;;8.81;30.23
68107;BME280;54892;47.488;19.026;2023-04-04T14:41:48;99916.25;;;8.73;30.98
68107;BME280;54892;47.488;19.026;2023-04-04T14:44:53;99916.50;;;8.72;30.34
68107;BME280;54892;47.488;19.026;2023-04-04T14:47:56;99924.69;;;8.75;30.90
68107;BME280;54892;47.488;19.026;2023-04-04T14:50:59;99920.56;;;8.62;30.33
68107;BME280;54892;47.488;19.026;2023-04-04T14:54:02;99916.53;;;8.77;30.85
68107;BME280;54892;47.488;19.026;2023-04-04T14:57:06;99918.97;;;8.83;30.83
68107;BME280;54892;47.488;19.026;2023-04-04T15:00:11;99923.41;;;8.78;31.00
68107;BME280;54892;47.488;19.026;2023-04-04T15:03:16;99919.06;;;8.66;30.93
68107;BME280;54892;47.488;19.026;2023-04-04T15:06:19;99922.06;;;8.75;30.93
68107;BME280;54892;47.488;19.026;2023-04-04T15:09:22;99920.16;;;8.71;31.00
68107;BME280;54892;47.488;19.026;2023-04-04T15:12:25;99916.50;;;8.72;31.79
68107;BME280;54892;47.488;19.026;2023-04-04T15:15:29;99915.03;;;8.81;30.92
68107;BME280;54892;47.488;19.026;2023-04-04T15:18:33;99919.81;;;8.84;30.69
68107;BME280;54892;47.488;19.026;2023-04-04T15:21:36;99923.22;;;8.62;30.92
68107;BME280;54892;47.488;19.026;2023-04-04T15:24:39;99929.09;;;8.70;30.73
68107;BME280;54892;47.488;19.026;2023-04-04T15:27:42;99928.72;;;8.61;31.34
68107;BME280;54892;47.488;19.026;2023-04-04T15:30:46;99924.66;;;8.36;32.02
68107;BME280;54892;47.488;19.026;2023-04-04T15:33:49;99939.19;;;8.38;32.11
68107;BME280;54892;47.488;19.026;2023-04-04T15:36:52;99930.09;;;8.29;32.11
68107;BME280;54892;47.488;19.026;2023-04-04T15:39:58;99929.12;;;8.35;31.88
68107;BME280;54892;47.488;19.026;2023-04-04T15:43:01;99938.06;;;8.34;32.28
68107;BME280;54892;47.488;19.026;2023-04-04T15:46:06;99934.56;;;8.29;32.42
68107;BME280;54892;47.488;19.026;2023-04-04T15:49:09;99947.50;;;8.13;32.58
68107;BME280;54892;47.488;19.026;2023-04-04T15:52:11;99940.00;;;8.22;33.02
68107;BME280;54892;47.488;19.026;2023-04-04T15:55:14;99942.75;;;8.32;33.17
68107;BME280;54892;47.488;19.026;2023-04-04T15:58:17;99954.19;;;8.21;32.80
68107;BME280;54892;47.488;19.026;2023-04-04T16:01:22;99946.44;;;8.14;33.06
68107;BME280;54892;47.488;19.026;2023-04-04T16:04:25;99951.78;;;8.19;33.18
68107;BME280;54892;47.488;19.026;2023-04-04T16:07:28;99962.22;;;8.14;33.30
68107;BME280;54892;47.488;19.026;2023-04-04T16:10:31;99956.72;;;8.16;32.97
68107;BME280;54892;47.488;19.026;2023-04-04T16:13:33;99961.50;;;8.02;33.21